• Join FlightAware (Why Join?)
  • Login
  • US Flag 
03:44AM EDT


 

Airport Tracker/Info


-or-


 

Live Flight TrackerFlight Track Log ✈ N51EM ✈ 23-Oct-2013 ✈ KABE - CYYT

Flight Track Log - Related Links

Times and Time Zones

All times are in EDT time to prevent confusion due to time zone crossing. See the N51EM flight status page for this flight to view local times or setup timezone preferences in your user account.

Time Position Orientation Groundspeed Altitude Reporting Facility
EDT Latitude Longitude Course Direction KTS MPH feet Rate Location/Type
03:35PM 40.5989 -75.5350 301° West 265 305 3,700  Level New York Center
03:36PM 40.6314 -75.6058 301° West 214 246 7,400 2,700 Climbing New York Center
03:37PM 40.7083 -75.6056 360° North 190 219 9,200 1,740 Climbing New York Center
03:38PM 40.7903 -75.5922 North 250 288 10,900 1,500 Climbing New York Center
03:39PM 40.8742 -75.5764 North 316 364 12,200 2,160 Climbing New York Center
03:40PM 40.9772 -75.5561 North 333 383 15,300 2,340 Climbing New York Center
03:41PM 41.0633 -75.5400 North 333 383 16,900 780 Climbing New York Center
03:42PM 41.1578 -75.5192 North 338 389 16,900 1,320 Level New York Center
03:44PM 41.3764 -75.4711 North 439 505 20,900 1,440 Climbing New York Center
03:45PM 41.4897 -75.4458 North 428 493 21,300 1,200 Climbing New York Center
03:46PM 41.5819 -75.3772 29° Northeast 389 448 23,300 1,740 Climbing New York Center
03:48PM 41.7931 -75.3472 North 387 445 26,900 1,860 Climbing Boston Center
03:49PM 41.9172 -75.3336 North 377 434 29,300 1,680 Climbing Boston Center
03:50PM 42.0167 -75.3236 North 362 417 30,400 840 Climbing Boston Center
03:51PM 42.1042 -75.2311 38° Northeast 423 487 31,100 600 Climbing Boston Center
03:52PM 42.1628 -75.1064 58° Northeast 433 498 31,700 600 Climbing Boston Center
03:53PM 42.2403 -74.9339 59° Northeast 446 513 32,400 600 Climbing Boston Center
03:54PM 42.3072 -74.7872 58° Northeast 463 533 33,000 540 Climbing Boston Center
03:55PM 42.3769 -74.6383 58° Northeast 501 577 33,600 480 Climbing Boston Center
03:56PM 42.4447 -74.4831 59° Northeast 509 586 34,100 480 Climbing Boston Center
03:57PM 42.5133 -74.3272 59° Northeast 492 566 34,700 540 Climbing Boston Center
03:58PM 42.5856 -74.1692 58° Northeast 490 564 35,300 480 Climbing Boston Center
03:59PM 42.6569 -74.0081 59° Northeast 495 570 35,800 480 Climbing Boston Center
04:00PM 42.7275 -73.8489 59° Northeast 493 567 36,400 540 Climbing Boston Center
04:01PM 42.7986 -73.6922 58° Northeast 488 562 36,900 540 Climbing Boston Center
04:02PM 42.8700 -73.5358 58° Northeast 485 558 37,500  Climbing Boston Center
04:03PM 42.9558 -73.3469 58° Northeast 484 557 37,000 -960 Descending Boston Center
04:04PM 43.0322 -73.1817 58° Northeast 500 575 35,600 -960 Descending Boston Center
04:05PM 43.1117 -73.0028 59° Northeast 534 615 35,100 -300 Descending Boston Center
04:06PM 43.1908 -72.8294 58° Northeast 537 618 35,100 -60 Level Boston Center
04:07PM 43.2653 -72.6578 59° Northeast 529 609 35,000 -60 Descending Boston Center
04:08PM 43.3397 -72.4967 58° Northeast 509 586 35,000  Level Boston Center
04:09PM 43.4094 -72.3342 59° Northeast 499 574 35,000  Level Boston Center
04:10PM 43.4789 -72.1758 59° Northeast 488 562 35,000  Level Boston Center
04:11PM 43.5461 -72.0233 59° Northeast 474 545 35,000  Level Boston Center
04:13PM 43.6183 -71.8900 53° Northeast 456 525 35,000  Level Boston Center
04:14PM 43.7131 -71.9372 340° North 338 389 35,000  Level Boston Center
04:15PM 43.7119 -72.0342 269° West 263 303 35,000 -360 Level Boston Center
04:16PM 43.6739 -72.1242 240° Southwest 287 330 34,300 -780 Descending Boston Center
04:17PM 43.6244 -72.2144 233° Southwest 297 342 33,500 -840 Descending Boston Center
04:18PM 43.5739 -72.3083 233° Southwest 303 349 32,600 -1,200 Descending Boston Center
04:19PM 43.5225 -72.4033 233° Southwest 309 356 31,100 -1,380 Descending Boston Center
04:20PM 43.4692 -72.5028 234° Southwest 322 371 29,900 -1,200 Descending Boston Center
04:21PM 43.4161 -72.6006 233° Southwest 321 369 28,700 -1,320 Descending Boston Center
04:22PM 43.3533 -72.7150 233° Southwest 317 365 27,200 -1,440 Descending Boston Center
04:23PM 43.3003 -72.8119 233° Southwest 318 366 25,900 -1,320 Descending Boston Center
04:24PM 43.2469 -72.9089 233° Southwest 319 367 24,600 -960 Descending Boston Center
04:25PM 43.1908 -73.0125 233° Southwest 319 367 24,000 -480 Descending Boston Center
04:26PM 43.1436 -73.0992 233° Southwest 313 360 23,700 -660 Descending Boston Center
04:27PM 43.0906 -73.1936 232° Southwest 314 361 22,700 -1,020 Descending Boston Center
04:28PM 43.0344 -73.2936 233° Southwest 328 377 21,700 -1,080 Descending Boston Center
04:29PM 42.9436 -73.3758 214° Southwest 344 396 20,500 -1,200 Descending Boston Center
04:30PM 42.8550 -73.4133 197° South 336 387 19,300 -1,380 Descending Boston Center
04:31PM 42.7606 -73.4564 199° South 335 386 17,800 -1,320 Descending Boston Center
04:32PM 42.6742 -73.4942 198° South 327 376 16,600 -1,140 Descending Boston Center
04:33PM 42.5881 -73.5300 197° South 326 375 15,500 -1,200 Descending Boston Center
04:34PM 42.4956 -73.5675 197° South 321 369 14,300 -1,200 Descending Boston Center
04:35PM 42.4103 -73.6017 196° South 320 368 13,200 -1,140 Descending Boston Center
04:36PM 42.3222 -73.6381 197° South 325 374 12,000 -1,140 Descending Boston Center
04:37PM 42.2350 -73.6744 197° South 328 377 10,900 -840 Descending Boston Center
04:38PM 42.1411 -73.7122 197° South 330 380 10,400 -1,140 Descending Boston Center
04:39PM 42.0500 -73.7511 198° South 344 396 8,600 -1,800 Descending Boston Center
04:40PM 41.9664 -73.7847 197° South 311 358 6,800 -1,920 Descending Boston Center
04:41PM 41.8897 -73.8172 198° South 269 310 4,800 -1,020 Descending Boston Center
04:43PM 41.7500 -73.8167 180° South 228 262 3,700 -600 Descending New York TRACON
04:44PM 41.6833 -73.8000 169° South 231 266 3,000 -360 Descending New York TRACON
04:45PM 41.6167 -73.8000 180° South 220 253 3,000  Level New York TRACON
04:46PM 41.5667 -73.8167 194° South 225 259 3,000 -240 Level New York TRACON
04:47PM 41.5500 -73.8833 252° West 196 226 2,600 -300 Descending New York TRACON
04:48PM 41.5333 -73.9500 252° West 194 223 2,400 -480 Descending New York TRACON
04:49PM 41.5167 -74.0167 252° West 194 223 1,700 -780 Descending New York TRACON
04:50PM 41.5167 -74.0667 270° West 134 154 900 -840 Descending New York TRACON
04:52PM 41.5000 -74.1000 254° West  Level FlightAware Approximate
04:59PM 41.8017 -73.3709 254° West  Level Estimated
05:00PM 41.8444 -73.2662 254° West  Level Estimated
05:01PM 41.8870 -73.1613 254° West  Level Estimated
05:02PM 41.9295 -73.0564 254° West  Level Estimated
05:03PM 41.9720 -72.9512 254° West  Level Estimated
05:04PM 42.0143 -72.8460 254° West  Level Estimated
05:05PM 42.0565 -72.7405 254° West  Level Estimated
05:06PM 42.0987 -72.6350 254° West  Level Estimated
05:07PM 42.1407 -72.5293 254° West  Level Estimated